sensor_id;sensor_type;location;lat;lon;timestamp;P1;durP1;ratioP1;P2;durP2;ratioP2
7485;SDS011;3784;54.098;9.998;2022-08-19T00:01:57;20.77;;;15.03;;
7485;SDS011;3784;54.098;9.998;2022-08-19T00:04:25;23.77;;;15.37;;
7485;SDS011;3784;54.098;9.998;2022-08-19T00:06:55;21.07;;;14.63;;
7485;SDS011;3784;54.098;9.998;2022-08-19T00:09:23;18.97;;;15.00;;
7485;SDS011;3784;54.098;9.998;2022-08-19T00:11:50;19.87;;;14.43;;
7485;SDS011;3784;54.098;9.998;2022-08-19T00:14:17;18.00;;;14.00;;
7485;SDS011;3784;54.098;9.998;2022-08-19T00:16:45;18.67;;;14.50;;
7485;SDS011;3784;54.098;9.998;2022-08-19T00:19:12;20.77;;;15.07;;
7485;SDS011;3784;54.098;9.998;2022-08-19T00:21:39;18.57;;;15.03;;
7485;SDS011;3784;54.098;9.998;2022-08-19T00:24:07;23.03;;;15.50;;
7485;SDS011;3784;54.098;9.998;2022-08-19T00:26:34;18.87;;;15.07;;
7485;SDS011;3784;54.098;9.998;2022-08-19T00:29:02;24.13;;;14.83;;
7485;SDS011;3784;54.098;9.998;2022-08-19T00:31:29;17.83;;;13.90;;
7485;SDS011;3784;54.098;9.998;2022-08-19T00:33:57;20.53;;;15.40;;
7485;SDS011;3784;54.098;9.998;2022-08-19T00:36:24;19.70;;;15.07;;
7485;SDS011;3784;54.098;9.998;2022-08-19T00:38:50;21.20;;;15.40;;
7485;SDS011;3784;54.098;9.998;2022-08-19T00:41:19;21.63;;;14.77;;
7485;SDS011;3784;54.098;9.998;2022-08-19T00:43:57;17.93;;;14.00;;
7485;SDS011;3784;54.098;9.998;2022-08-19T00:46:27;23.17;;;15.60;;
7485;SDS011;3784;54.098;9.998;2022-08-19T00:48:54;24.03;;;16.63;;
7485;SDS011;3784;54.098;9.998;2022-08-19T00:51:24;24.37;;;16.10;;
7485;SDS011;3784;54.098;9.998;2022-08-19T00:53:53;24.87;;;17.27;;
7485;SDS011;3784;54.098;9.998;2022-08-19T00:56:20;24.00;;;16.83;;
7485;SDS011;3784;54.098;9.998;2022-08-19T00:58:48;20.97;;;17.07;;
7485;SDS011;3784;54.098;9.998;2022-08-19T01:01:15;20.27;;;16.80;;
7485;SDS011;3784;54.098;9.998;2022-08-19T01:03:41;24.00;;;16.03;;
7485;SDS011;3784;54.098;9.998;2022-08-19T01:06:23;23.13;;;17.03;;
7485;SDS011;3784;54.098;9.998;2022-08-19T01:08:49;26.60;;;18.17;;
7485;SDS011;3784;54.098;9.998;2022-08-19T01:11:16;24.17;;;18.17;;
7485;SDS011;3784;54.098;9.998;2022-08-19T01:13:43;27.17;;;19.10;;
7485;SDS011;3784;54.098;9.998;2022-08-19T01:16:15;26.23;;;19.50;;
7485;SDS011;3784;54.098;9.998;2022-08-19T01:18:43;26.00;;;19.30;;
7485;SDS011;3784;54.098;9.998;2022-08-19T01:23:59;24.63;;;20.10;;
7485;SDS011;3784;54.098;9.998;2022-08-19T01:26:25;27.30;;;19.37;;
7485;SDS011;3784;54.098;9.998;2022-08-19T01:28:53;27.97;;;20.43;;
7485;SDS011;3784;54.098;9.998;2022-08-19T01:31:26;27.90;;;20.77;;
7485;SDS011;3784;54.098;9.998;2022-08-19T01:33:58;28.07;;;20.50;;
7485;SDS011;3784;54.098;9.998;2022-08-19T01:36:27;29.20;;;21.43;;
7485;SDS011;3784;54.098;9.998;2022-08-19T01:38:56;30.43;;;21.67;;
7485;SDS011;3784;54.098;9.998;2022-08-19T01:41:24;30.77;;;20.67;;
7485;SDS011;3784;54.098;9.998;2022-08-19T01:43:51;32.73;;;22.20;;
7485;SDS011;3784;54.098;9.998;2022-08-19T01:46:38;36.43;;;24.10;;
7485;SDS011;3784;54.098;9.998;2022-08-19T01:49:06;30.47;;;20.93;;
7485;SDS011;3784;54.098;9.998;2022-08-19T01:51:34;32.47;;;21.67;;
7485;SDS011;3784;54.098;9.998;2022-08-19T01:54:05;41.23;;;22.67;;
7485;SDS011;3784;54.098;9.998;2022-08-19T01:56:33;44.83;;;23.87;;
7485;SDS011;3784;54.098;9.998;2022-08-19T01:59:01;35.27;;;23.53;;
7485;SDS011;3784;54.098;9.998;2022-08-19T02:01:31;38.00;;;23.27;;
7485;SDS011;3784;54.098;9.998;2022-08-19T02:03:58;35.97;;;25.20;;
7485;SDS011;3784;54.098;9.998;2022-08-19T02:06:27;40.57;;;24.93;;
7485;SDS011;3784;54.098;9.998;2022-08-19T02:08:54;41.83;;;24.07;;
7485;SDS011;3784;54.098;9.998;2022-08-19T02:11:27;40.37;;;25.10;;
7485;SDS011;3784;54.098;9.998;2022-08-19T02:13:56;38.10;;;24.27;;
7485;SDS011;3784;54.098;9.998;2022-08-19T02:16:23;43.97;;;25.30;;
7485;SDS011;3784;54.098;9.998;2022-08-19T02:18:50;42.67;;;24.30;;
7485;SDS011;3784;54.098;9.998;2022-08-19T02:21:18;46.00;;;25.50;;
7485;SDS011;3784;54.098;9.998;2022-08-19T02:23:45;38.40;;;24.83;;
7485;SDS011;3784;54.098;9.998;2022-08-19T02:26:12;38.30;;;24.70;;
7485;SDS011;3784;54.098;9.998;2022-08-19T02:28:40;38.47;;;23.70;;
7485;SDS011;3784;54.098;9.998;2022-08-19T02:31:12;41.60;;;25.13;;
7485;SDS011;3784;54.098;9.998;2022-08-19T02:33:44;45.97;;;26.40;;
7485;SDS011;3784;54.098;9.998;2022-08-19T02:36:11;39.60;;;26.17;;
7485;SDS011;3784;54.098;9.998;2022-08-19T02:38:40;41.20;;;25.97;;
7485;SDS011;3784;54.098;9.998;2022-08-19T02:41:16;42.60;;;26.67;;
7485;SDS011;3784;54.098;9.998;2022-08-19T02:43:46;45.70;;;27.10;;
7485;SDS011;3784;54.098;9.998;2022-08-19T02:46:33;40.27;;;26.10;;
7485;SDS011;3784;54.098;9.998;2022-08-19T02:49:02;42.20;;;27.80;;
7485;SDS011;3784;54.098;9.998;2022-08-19T02:51:32;42.47;;;27.10;;
7485;SDS011;3784;54.098;9.998;2022-08-19T02:54:05;42.27;;;27.73;;
7485;SDS011;3784;54.098;9.998;2022-08-19T02:56:36;43.67;;;28.37;;
7485;SDS011;3784;54.098;9.998;2022-08-19T02:59:04;43.90;;;28.27;;
7485;SDS011;3784;54.098;9.998;2022-08-19T03:01:36;45.00;;;27.87;;
7485;SDS011;3784;54.098;9.998;2022-08-19T03:04:07;47.70;;;28.60;;
7485;SDS011;3784;54.098;9.998;2022-08-19T03:06:36;46.80;;;29.63;;
7485;SDS011;3784;54.098;9.998;2022-08-19T03:09:03;46.03;;;30.33;;
7485;SDS011;3784;54.098;9.998;2022-08-19T03:11:31;43.33;;;28.83;;
7485;SDS011;3784;54.098;9.998;2022-08-19T03:13:59;45.53;;;28.13;;
7485;SDS011;3784;54.098;9.998;2022-08-19T03:16:27;46.83;;;30.40;;
7485;SDS011;3784;54.098;9.998;2022-08-19T03:18:58;50.30;;;28.70;;
7485;SDS011;3784;54.098;9.998;2022-08-19T03:21:30;47.90;;;28.70;;
7485;SDS011;3784;54.098;9.998;2022-08-19T03:23:58;52.53;;;30.13;;
7485;SDS011;3784;54.098;9.998;2022-08-19T03:26:26;46.13;;;29.83;;
7485;SDS011;3784;54.098;9.998;2022-08-19T03:28:53;45.30;;;28.90;;
7485;SDS011;3784;54.098;9.998;2022-08-19T03:31:24;48.40;;;30.60;;
7485;SDS011;3784;54.098;9.998;2022-08-19T03:34:15;50.40;;;31.57;;
7485;SDS011;3784;54.098;9.998;2022-08-19T03:36:44;59.40;;;32.90;;
7485;SDS011;3784;54.098;9.998;2022-08-19T03:39:12;62.67;;;34.43;;
7485;SDS011;3784;54.098;9.998;2022-08-19T03:41:39;61.50;;;33.40;;
7485;SDS011;3784;54.098;9.998;2022-08-19T03:44:11;60.23;;;34.63;;
7485;SDS011;3784;54.098;9.998;2022-08-19T03:46:44;69.60;;;35.43;;
7485;SDS011;3784;54.098;9.998;2022-08-19T03:49:11;68.63;;;36.13;;
7485;SDS011;3784;54.098;9.998;2022-08-19T03:51:40;64.13;;;33.87;;
7485;SDS011;3784;54.098;9.998;2022-08-19T03:54:08;71.57;;;37.17;;
7485;SDS011;3784;54.098;9.998;2022-08-19T03:56:39;78.10;;;37.57;;
7485;SDS011;3784;54.098;9.998;2022-08-19T03:59:08;71.87;;;36.00;;
7485;SDS011;3784;54.098;9.998;2022-08-19T04:01:36;79.93;;;37.60;;
7485;SDS011;3784;54.098;9.998;2022-08-19T04:04:03;70.37;;;36.77;;
7485;SDS011;3784;54.098;9.998;2022-08-19T04:06:31;74.10;;;36.87;;
7485;SDS011;3784;54.098;9.998;2022-08-19T04:09:05;84.57;;;39.40;;
7485;SDS011;3784;54.098;9.998;2022-08-19T04:11:36;85.57;;;39.20;;
7485;SDS011;3784;54.098;9.998;2022-08-19T04:14:10;72.40;;;37.10;;
7485;SDS011;3784;54.098;9.998;2022-08-19T04:16:38;70.47;;;39.23;;
7485;SDS011;3784;54.098;9.998;2022-08-19T04:19:05;66.57;;;34.20;;
7485;SDS011;3784;54.098;9.998;2022-08-19T04:21:33;73.93;;;36.67;;
7485;SDS011;3784;54.098;9.998;2022-08-19T04:24:00;73.37;;;38.27;;
7485;SDS011;3784;54.098;9.998;2022-08-19T04:26:30;76.93;;;39.13;;
7485;SDS011;3784;54.098;9.998;2022-08-19T04:29:00;76.77;;;39.60;;
7485;SDS011;3784;54.098;9.998;2022-08-19T04:31:33;74.17;;;38.50;;
7485;SDS011;3784;54.098;9.998;2022-08-19T04:34:04;63.57;;;36.53;;
7485;SDS011;3784;54.098;9.998;2022-08-19T04:36:33;77.20;;;39.17;;
7485;SDS011;3784;54.098;9.998;2022-08-19T04:39:02;73.77;;;38.83;;
7485;SDS011;3784;54.098;9.998;2022-08-19T04:41:34;70.00;;;37.43;;
7485;SDS011;3784;54.098;9.998;2022-08-19T04:44:19;76.83;;;38.80;;
7485;SDS011;3784;54.098;9.998;2022-08-19T04:46:46;70.67;;;39.03;;
7485;SDS011;3784;54.098;9.998;2022-08-19T04:49:17;65.27;;;36.97;;
7485;SDS011;3784;54.098;9.998;2022-08-19T04:51:45;65.10;;;36.10;;
7485;SDS011;3784;54.098;9.998;2022-08-19T04:54:14;69.13;;;36.43;;
7485;SDS011;3784;54.098;9.998;2022-08-19T04:57:02;66.80;;;36.60;;
7485;SDS011;3784;54.098;9.998;2022-08-19T04:59:29;69.73;;;36.73;;
7485;SDS011;3784;54.098;9.998;2022-08-19T05:01:56;61.27;;;33.97;;
7485;SDS011;3784;54.098;9.998;2022-08-19T05:04:22;62.10;;;34.73;;
7485;SDS011;3784;54.098;9.998;2022-08-19T05:06:49;60.73;;;34.13;;
7485;SDS011;3784;54.098;9.998;2022-08-19T05:09:24;60.83;;;34.60;;
7485;SDS011;3784;54.098;9.998;2022-08-19T05:11:53;61.50;;;34.17;;
7485;SDS011;3784;54.098;9.998;2022-08-19T05:14:19;60.00;;;33.97;;
7485;SDS011;3784;54.098;9.998;2022-08-19T05:16:47;65.80;;;34.60;;
7485;SDS011;3784;54.098;9.998;2022-08-19T05:19:14;53.93;;;32.93;;
7485;SDS011;3784;54.098;9.998;2022-08-19T05:22:00;57.73;;;35.20;;
7485;SDS011;3784;54.098;9.998;2022-08-19T05:24:45;51.80;;;33.20;;
7485;SDS011;3784;54.098;9.998;2022-08-19T05:27:32;52.60;;;31.00;;
7485;SDS011;3784;54.098;9.998;2022-08-19T05:29:59;58.23;;;32.57;;
7485;SDS011;3784;54.098;9.998;2022-08-19T05:32:26;51.10;;;31.67;;
7485;SDS011;3784;54.098;9.998;2022-08-19T05:34:53;60.97;;;34.37;;
7485;SDS011;3784;54.098;9.998;2022-08-19T05:37:19;54.43;;;32.80;;
7485;SDS011;3784;54.098;9.998;2022-08-19T05:39:46;64.67;;;33.73;;
7485;SDS011;3784;54.098;9.998;2022-08-19T05:42:16;51.33;;;31.83;;
7485;SDS011;3784;54.098;9.998;2022-08-19T05:44:43;53.40;;;32.07;;
7485;SDS011;3784;54.098;9.998;2022-08-19T05:47:11;53.00;;;31.87;;
7485;SDS011;3784;54.098;9.998;2022-08-19T05:49:38;51.40;;;32.43;;
7485;SDS011;3784;54.098;9.998;2022-08-19T05:52:06;55.67;;;31.73;;
7485;SDS011;3784;54.098;9.998;2022-08-19T05:54:36;48.53;;;29.77;;
7485;SDS011;3784;54.098;9.998;2022-08-19T05:57:06;53.23;;;31.90;;
7485;SDS011;3784;54.098;9.998;2022-08-19T05:59:36;47.07;;;31.40;;
7485;SDS011;3784;54.098;9.998;2022-08-19T06:02:04;50.37;;;30.63;;
7485;SDS011;3784;54.098;9.998;2022-08-19T06:04:32;48.97;;;31.20;;
7485;SDS011;3784;54.098;9.998;2022-08-19T06:06:59;52.67;;;31.77;;
7485;SDS011;3784;54.098;9.998;2022-08-19T06:09:38;48.47;;;31.60;;
7485;SDS011;3784;54.098;9.998;2022-08-19T06:12:05;46.80;;;32.00;;
7485;SDS011;3784;54.098;9.998;2022-08-19T06:14:33;49.53;;;31.47;;
7485;SDS011;3784;54.098;9.998;2022-08-19T06:17:07;49.90;;;32.43;;
7485;SDS011;3784;54.098;9.998;2022-08-19T06:19:34;52.20;;;32.20;;
7485;SDS011;3784;54.098;9.998;2022-08-19T06:22:06;56.67;;;32.93;;
7485;SDS011;3784;54.098;9.998;2022-08-19T06:24:33;53.37;;;33.17;;
7485;SDS011;3784;54.098;9.998;2022-08-19T06:27:02;48.30;;;32.07;;
7485;SDS011;3784;54.098;9.998;2022-08-19T06:29:29;54.30;;;32.23;;
7485;SDS011;3784;54.098;9.998;2022-08-19T06:31:57;54.70;;;33.67;;
7485;SDS011;3784;54.098;9.998;2022-08-19T06:34:26;51.93;;;32.10;;
7485;SDS011;3784;54.098;9.998;2022-08-19T06:36:54;46.37;;;32.07;;
7485;SDS011;3784;54.098;9.998;2022-08-19T06:39:23;47.47;;;32.17;;
7485;SDS011;3784;54.098;9.998;2022-08-19T06:41:52;47.13;;;32.30;;
7485;SDS011;3784;54.098;9.998;2022-08-19T06:44:24;45.93;;;31.63;;
7485;SDS011;3784;54.098;9.998;2022-08-19T06:46:55;50.10;;;33.50;;
7485;SDS011;3784;54.098;9.998;2022-08-19T06:49:22;47.27;;;32.20;;
7485;SDS011;3784;54.098;9.998;2022-08-19T06:51:49;52.53;;;32.70;;
7485;SDS011;3784;54.098;9.998;2022-08-19T06:54:17;53.10;;;32.53;;
7485;SDS011;3784;54.098;9.998;2022-08-19T06:56:45;39.97;;;31.07;;
7485;SDS011;3784;54.098;9.998;2022-08-19T06:59:13;45.63;;;31.87;;
7485;SDS011;3784;54.098;9.998;2022-08-19T07:01:45;44.47;;;30.53;;
7485;SDS011;3784;54.098;9.998;2022-08-19T07:04:15;46.77;;;31.00;;
7485;SDS011;3784;54.098;9.998;2022-08-19T07:06:44;46.43;;;30.77;;
7485;SDS011;3784;54.098;9.998;2022-08-19T07:09:20;50.53;;;32.80;;
7485;SDS011;3784;54.098;9.998;2022-08-19T07:11:48;49.83;;;33.57;;
7485;SDS011;3784;54.098;9.998;2022-08-19T07:14:16;45.87;;;32.37;;
7485;SDS011;3784;54.098;9.998;2022-08-19T07:16:46;49.40;;;32.33;;
7485;SDS011;3784;54.098;9.998;2022-08-19T07:19:14;47.60;;;33.83;;
7485;SDS011;3784;54.098;9.998;2022-08-19T07:21:44;51.73;;;33.67;;
7485;SDS011;3784;54.098;9.998;2022-08-19T07:24:12;46.07;;;33.80;;
7485;SDS011;3784;54.098;9.998;2022-08-19T07:26:40;41.50;;;30.40;;
7485;SDS011;3784;54.098;9.998;2022-08-19T07:29:08;45.83;;;30.83;;
7485;SDS011;3784;54.098;9.998;2022-08-19T07:31:36;43.37;;;30.57;;
7485;SDS011;3784;54.098;9.998;2022-08-19T07:34:04;44.97;;;30.77;;
7485;SDS011;3784;54.098;9.998;2022-08-19T07:36:36;41.30;;;31.47;;
7485;SDS011;3784;54.098;9.998;2022-08-19T07:39:05;41.83;;;31.03;;
7485;SDS011;3784;54.098;9.998;2022-08-19T07:41:35;40.93;;;29.83;;
7485;SDS011;3784;54.098;9.998;2022-08-19T07:44:03;36.37;;;28.50;;
7485;SDS011;3784;54.098;9.998;2022-08-19T07:46:34;37.60;;;28.23;;
7485;SDS011;3784;54.098;9.998;2022-08-19T07:49:05;35.63;;;26.77;;
7485;SDS011;3784;54.098;9.998;2022-08-19T07:51:34;36.10;;;27.03;;
7485;SDS011;3784;54.098;9.998;2022-08-19T07:54:02;36.37;;;27.60;;
7485;SDS011;3784;54.098;9.998;2022-08-19T07:56:29;32.93;;;26.53;;
7485;SDS011;3784;54.098;9.998;2022-08-19T07:58:56;35.23;;;27.37;;
7485;SDS011;3784;54.098;9.998;2022-08-19T08:01:23;34.27;;;27.10;;
7485;SDS011;3784;54.098;9.998;2022-08-19T08:03:52;31.57;;;27.23;;
7485;SDS011;3784;54.098;9.998;2022-08-19T08:06:37;31.03;;;27.33;;
7485;SDS011;3784;54.098;9.998;2022-08-19T08:09:24;34.37;;;27.80;;
7485;SDS011;3784;54.098;9.998;2022-08-19T08:12:06;33.33;;;27.27;;
7485;SDS011;3784;54.098;9.998;2022-08-19T08:14:58;33.03;;;28.10;;
7485;SDS011;3784;54.098;9.998;2022-08-19T08:17:28;33.97;;;28.67;;
7485;SDS011;3784;54.098;9.998;2022-08-19T08:20:15;38.47;;;29.53;;
7485;SDS011;3784;54.098;9.998;2022-08-19T08:22:42;35.67;;;29.27;;
7485;SDS011;3784;54.098;9.998;2022-08-19T08:25:28;30.50;;;27.23;;
7485;SDS011;3784;54.098;9.998;2022-08-19T08:28:00;35.77;;;29.07;;
7485;SDS011;3784;54.098;9.998;2022-08-19T08:30:28;34.43;;;28.03;;
7485;SDS011;3784;54.098;9.998;2022-08-19T08:32:57;36.33;;;28.40;;
7485;SDS011;3784;54.098;9.998;2022-08-19T08:35:24;30.40;;;27.07;;
7485;SDS011;3784;54.098;9.998;2022-08-19T08:37:53;33.47;;;27.60;;
7485;SDS011;3784;54.098;9.998;2022-08-19T08:43:35;34.63;;;26.63;;
7485;SDS011;3784;54.098;9.998;2022-08-19T08:46:04;32.73;;;26.20;;
7485;SDS011;3784;54.098;9.998;2022-08-19T08:51:45;30.13;;;25.57;;
7485;SDS011;3784;54.098;9.998;2022-08-19T08:54:24;32.60;;;26.63;;
7485;SDS011;3784;54.098;9.998;2022-08-19T08:56:51;31.63;;;26.40;;
7485;SDS011;3784;54.098;9.998;2022-08-19T08:59:21;31.70;;;26.57;;
7485;SDS011;3784;54.098;9.998;2022-08-19T09:01:54;31.03;;;25.80;;
7485;SDS011;3784;54.098;9.998;2022-08-19T09:04:21;29.47;;;25.00;;
7485;SDS011;3784;54.098;9.998;2022-08-19T09:06:51;28.03;;;25.03;;
7485;SDS011;3784;54.098;9.998;2022-08-19T09:09:25;30.37;;;23.93;;
7485;SDS011;3784;54.098;9.998;2022-08-19T09:12:16;26.17;;;23.37;;
7485;SDS011;3784;54.098;9.998;2022-08-19T09:14:53;33.60;;;24.60;;
7485;SDS011;3784;54.098;9.998;2022-08-19T09:17:25;30.93;;;25.27;;
7485;SDS011;3784;54.098;9.998;2022-08-19T09:22:45;29.73;;;26.20;;
7485;SDS011;3784;54.098;9.998;2022-08-19T09:25:14;31.73;;;25.23;;
7485;SDS011;3784;54.098;9.998;2022-08-19T09:27:54;33.77;;;27.17;;
7485;SDS011;3784;54.098;9.998;2022-08-19T09:30:29;31.63;;;26.47;;
7485;SDS011;3784;54.098;9.998;2022-08-19T09:32:57;29.30;;;25.23;;
7485;SDS011;3784;54.098;9.998;2022-08-19T09:35:25;32.27;;;24.53;;
7485;SDS011;3784;54.098;9.998;2022-08-19T09:37:55;28.07;;;24.90;;
7485;SDS011;3784;54.098;9.998;2022-08-19T09:40:25;31.00;;;25.77;;
7485;SDS011;3784;54.098;9.998;2022-08-19T09:42:55;29.70;;;25.90;;
7485;SDS011;3784;54.098;9.998;2022-08-19T09:45:23;30.83;;;27.47;;
7485;SDS011;3784;54.098;9.998;2022-08-19T09:47:50;30.57;;;26.50;;
7485;SDS011;3784;54.098;9.998;2022-08-19T09:50:19;31.80;;;26.17;;
7485;SDS011;3784;54.098;9.998;2022-08-19T09:52:46;31.40;;;25.70;;
7485;SDS011;3784;54.098;9.998;2022-08-19T09:55:22;32.97;;;25.57;;
7485;SDS011;3784;54.098;9.998;2022-08-19T09:57:57;31.67;;;26.63;;
7485;SDS011;3784;54.098;9.998;2022-08-19T10:00:24;32.30;;;26.90;;
7485;SDS011;3784;54.098;9.998;2022-08-19T10:02:50;31.33;;;25.57;;
7485;SDS011;3784;54.098;9.998;2022-08-19T10:05:18;31.17;;;25.90;;
7485;SDS011;3784;54.098;9.998;2022-08-19T10:08:07;29.23;;;26.03;;
7485;SDS011;3784;54.098;9.998;2022-08-19T10:10:39;34.30;;;26.37;;
7485;SDS011;3784;54.098;9.998;2022-08-19T10:13:14;28.57;;;24.67;;
7485;SDS011;3784;54.098;9.998;2022-08-19T10:15:42;26.80;;;23.50;;
7485;SDS011;3784;54.098;9.998;2022-08-19T10:18:13;27.20;;;24.37;;
7485;SDS011;3784;54.098;9.998;2022-08-19T10:20:40;26.63;;;23.83;;
7485;SDS011;3784;54.098;9.998;2022-08-19T10:23:08;26.43;;;23.57;;
7485;SDS011;3784;54.098;9.998;2022-08-19T10:25:35;28.87;;;24.80;;
7485;SDS011;3784;54.098;9.998;2022-08-19T10:28:03;29.27;;;24.73;;
7485;SDS011;3784;54.098;9.998;2022-08-19T10:30:35;27.37;;;23.23;;
7485;SDS011;3784;54.098;9.998;2022-08-19T10:33:03;25.70;;;22.63;;
7485;SDS011;3784;54.098;9.998;2022-08-19T10:35:36;25.87;;;21.97;;
7485;SDS011;3784;54.098;9.998;2022-08-19T10:38:22;24.63;;;22.10;;
7485;SDS011;3784;54.098;9.998;2022-08-19T10:40:57;24.47;;;21.07;;
7485;SDS011;3784;54.098;9.998;2022-08-19T10:43:24;22.33;;;19.87;;
7485;SDS011;3784;54.098;9.998;2022-08-19T10:45:54;20.77;;;18.57;;
7485;SDS011;3784;54.098;9.998;2022-08-19T10:48:22;22.60;;;18.50;;
7485;SDS011;3784;54.098;9.998;2022-08-19T10:50:49;19.40;;;17.50;;
7485;SDS011;3784;54.098;9.998;2022-08-19T10:53:34;19.33;;;17.20;;
7485;SDS011;3784;54.098;9.998;2022-08-19T10:56:01;19.77;;;17.77;;
7485;SDS011;3784;54.098;9.998;2022-08-19T10:58:46;17.67;;;15.87;;
7485;SDS011;3784;54.098;9.998;2022-08-19T11:01:15;18.13;;;15.93;;
7485;SDS011;3784;54.098;9.998;2022-08-19T11:03:41;21.67;;;18.30;;
7485;SDS011;3784;54.098;9.998;2022-08-19T11:06:08;19.17;;;16.63;;
7485;SDS011;3784;54.098;9.998;2022-08-19T11:08:35;19.80;;;17.40;;
7485;SDS011;3784;54.098;9.998;2022-08-19T11:11:04;19.97;;;17.87;;
7485;SDS011;3784;54.098;9.998;2022-08-19T11:13:33;21.93;;;19.30;;
7485;SDS011;3784;54.098;9.998;2022-08-19T11:16:04;20.90;;;18.80;;
7485;SDS011;3784;54.098;9.998;2022-08-19T11:18:37;20.83;;;18.73;;
7485;SDS011;3784;54.098;9.998;2022-08-19T11:21:15;21.40;;;19.40;;
7485;SDS011;3784;54.098;9.998;2022-08-19T11:23:45;22.30;;;18.73;;
7485;SDS011;3784;54.098;9.998;2022-08-19T11:26:13;21.30;;;19.10;;
7485;SDS011;3784;54.098;9.998;2022-08-19T11:28:41;19.97;;;17.97;;
7485;SDS011;3784;54.098;9.998;2022-08-19T11:31:11;20.70;;;18.60;;
7485;SDS011;3784;54.098;9.998;2022-08-19T11:33:39;20.17;;;18.07;;
7485;SDS011;3784;54.098;9.998;2022-08-19T11:36:06;19.77;;;17.87;;
7485;SDS011;3784;54.098;9.998;2022-08-19T11:38:33;19.07;;;17.13;;
7485;SDS011;3784;54.098;9.998;2022-08-19T11:41:02;18.83;;;16.57;;
7485;SDS011;3784;54.098;9.998;2022-08-19T11:43:33;18.80;;;16.80;;
7485;SDS011;3784;54.098;9.998;2022-08-19T11:46:06;18.63;;;16.77;;
7485;SDS011;3784;54.098;9.998;2022-08-19T11:48:36;18.17;;;16.50;;
7485;SDS011;3784;54.098;9.998;2022-08-19T11:51:07;18.13;;;16.30;;
7485;SDS011;3784;54.098;9.998;2022-08-19T11:56:09;19.20;;;17.30;;
7485;SDS011;3784;54.098;9.998;2022-08-19T11:58:36;19.83;;;17.83;;
7485;SDS011;3784;54.098;9.998;2022-08-19T12:01:07;19.50;;;17.57;;
7485;SDS011;3784;54.098;9.998;2022-08-19T12:03:34;17.50;;;15.90;;
7485;SDS011;3784;54.098;9.998;2022-08-19T12:06:05;17.63;;;15.97;;
7485;SDS011;3784;54.098;9.998;2022-08-19T12:08:33;18.47;;;16.67;;
7485;SDS011;3784;54.098;9.998;2022-08-19T12:10:59;17.17;;;15.63;;
7485;SDS011;3784;54.098;9.998;2022-08-19T12:13:29;17.20;;;15.60;;
7485;SDS011;3784;54.098;9.998;2022-08-19T12:15:56;17.53;;;15.93;;
7485;SDS011;3784;54.098;9.998;2022-08-19T12:18:23;18.17;;;16.27;;
7485;SDS011;3784;54.098;9.998;2022-08-19T12:20:51;18.20;;;16.40;;
7485;SDS011;3784;54.098;9.998;2022-08-19T12:23:20;17.43;;;15.77;;
7485;SDS011;3784;54.098;9.998;2022-08-19T12:25:47;16.33;;;14.73;;
7485;SDS011;3784;54.098;9.998;2022-08-19T12:28:19;18.20;;;16.50;;
7485;SDS011;3784;54.098;9.998;2022-08-19T12:30:46;18.67;;;16.67;;
7485;SDS011;3784;54.098;9.998;2022-08-19T12:33:14;17.93;;;16.03;;
7485;SDS011;3784;54.098;9.998;2022-08-19T12:35:41;17.17;;;15.57;;
7485;SDS011;3784;54.098;9.998;2022-08-19T12:38:10;16.73;;;15.13;;
7485;SDS011;3784;54.098;9.998;2022-08-19T12:40:38;16.03;;;14.53;;
7485;SDS011;3784;54.098;9.998;2022-08-19T12:43:06;15.30;;;14.00;;
7485;SDS011;3784;54.098;9.998;2022-08-19T12:45:34;14.10;;;12.80;;
7485;SDS011;3784;54.098;9.998;2022-08-19T12:48:02;13.53;;;12.33;;
7485;SDS011;3784;54.098;9.998;2022-08-19T12:50:50;16.20;;;14.63;;
7485;SDS011;3784;54.098;9.998;2022-08-19T12:53:16;13.57;;;12.27;;
7485;SDS011;3784;54.098;9.998;2022-08-19T12:55:43;15.73;;;14.13;;
7485;SDS011;3784;54.098;9.998;2022-08-19T12:58:10;15.97;;;14.57;;
7485;SDS011;3784;54.098;9.998;2022-08-19T13:00:38;14.87;;;13.47;;
7485;SDS011;3784;54.098;9.998;2022-08-19T13:03:05;15.73;;;14.23;;
7485;SDS011;3784;54.098;9.998;2022-08-19T13:05:32;15.70;;;14.30;;
7485;SDS011;3784;54.098;9.998;2022-08-19T13:08:00;15.10;;;13.80;;
7485;SDS011;3784;54.098;9.998;2022-08-19T13:10:28;17.20;;;15.47;;
7485;SDS011;3784;54.098;9.998;2022-08-19T13:13:02;16.27;;;14.77;;
7485;SDS011;3784;54.098;9.998;2022-08-19T13:15:35;16.77;;;15.27;;
7485;SDS011;3784;54.098;9.998;2022-08-19T13:18:03;15.67;;;14.17;;
7485;SDS011;3784;54.098;9.998;2022-08-19T13:20:30;15.83;;;14.37;;
7485;SDS011;3784;54.098;9.998;2022-08-19T13:22:56;15.70;;;14.20;;
7485;SDS011;3784;54.098;9.998;2022-08-19T13:25:23;16.57;;;15.07;;
7485;SDS011;3784;54.098;9.998;2022-08-19T13:27:50;16.10;;;14.50;;
7485;SDS011;3784;54.098;9.998;2022-08-19T13:30:18;15.13;;;13.70;;
7485;SDS011;3784;54.098;9.998;2022-08-19T13:33:04;14.93;;;13.63;;
7485;SDS011;3784;54.098;9.998;2022-08-19T13:35:45;15.67;;;14.17;;
7485;SDS011;3784;54.098;9.998;2022-08-19T13:38:22;17.50;;;16.00;;
7485;SDS011;3784;54.098;9.998;2022-08-19T13:40:50;15.20;;;13.90;;
7485;SDS011;3784;54.098;9.998;2022-08-19T13:43:19;16.67;;;15.20;;
7485;SDS011;3784;54.098;9.998;2022-08-19T13:45:49;16.50;;;14.90;;
7485;SDS011;3784;54.098;9.998;2022-08-19T13:48:23;14.67;;;13.17;;
7485;SDS011;3784;54.098;9.998;2022-08-19T13:50:50;15.50;;;13.47;;
7485;SDS011;3784;54.098;9.998;2022-08-19T13:53:16;14.87;;;13.57;;
7485;SDS011;3784;54.098;9.998;2022-08-19T13:55:43;13.33;;;12.13;;
7485;SDS011;3784;54.098;9.998;2022-08-19T13:58:10;14.93;;;13.53;;
7485;SDS011;3784;54.098;9.998;2022-08-19T14:00:42;15.10;;;13.70;;
7485;SDS011;3784;54.098;9.998;2022-08-19T14:03:10;14.53;;;13.33;;
7485;SDS011;3784;54.098;9.998;2022-08-19T14:05:37;14.07;;;12.87;;
7485;SDS011;3784;54.098;9.998;2022-08-19T14:08:04;14.50;;;13.10;;
7485;SDS011;3784;54.098;9.998;2022-08-19T14:10:31;15.03;;;13.60;;
7485;SDS011;3784;54.098;9.998;2022-08-19T14:12:59;14.00;;;12.60;;
7485;SDS011;3784;54.098;9.998;2022-08-19T14:15:26;14.87;;;13.53;;
7485;SDS011;3784;54.098;9.998;2022-08-19T14:17:54;14.27;;;12.97;;
7485;SDS011;3784;54.098;9.998;2022-08-19T14:20:21;12.83;;;11.63;;
7485;SDS011;3784;54.098;9.998;2022-08-19T14:22:51;13.10;;;11.90;;
7485;SDS011;3784;54.098;9.998;2022-08-19T14:25:20;13.40;;;12.20;;
7485;SDS011;3784;54.098;9.998;2022-08-19T14:27:49;14.23;;;12.93;;
7485;SDS011;3784;54.098;9.998;2022-08-19T14:30:18;15.30;;;14.00;;
7485;SDS011;3784;54.098;9.998;2022-08-19T14:32:47;15.90;;;14.50;;
7485;SDS011;3784;54.098;9.998;2022-08-19T14:35:15;17.37;;;15.77;;
7485;SDS011;3784;54.098;9.998;2022-08-19T14:37:42;15.73;;;14.23;;
7485;SDS011;3784;54.098;9.998;2022-08-19T14:40:11;14.77;;;13.37;;
7485;SDS011;3784;54.098;9.998;2022-08-19T14:42:42;14.80;;;13.50;;
7485;SDS011;3784;54.098;9.998;2022-08-19T14:45:10;15.50;;;14.07;;
7485;SDS011;3784;54.098;9.998;2022-08-19T14:47:37;14.93;;;13.63;;
7485;SDS011;3784;54.098;9.998;2022-08-19T14:50:07;15.33;;;13.90;;
7485;SDS011;3784;54.098;9.998;2022-08-19T14:52:43;14.73;;;13.43;;
7485;SDS011;3784;54.098;9.998;2022-08-19T14:55:09;14.47;;;13.27;;
7485;SDS011;3784;54.098;9.998;2022-08-19T14:57:36;14.83;;;13.50;;
7485;SDS011;3784;54.098;9.998;2022-08-19T15:00:03;13.03;;;11.93;;
7485;SDS011;3784;54.098;9.998;2022-08-19T15:02:30;12.77;;;11.77;;
7485;SDS011;3784;54.098;9.998;2022-08-19T15:05:00;12.00;;;11.00;;
7485;SDS011;3784;54.098;9.998;2022-08-19T15:07:28;11.03;;;10.07;;
7485;SDS011;3784;54.098;9.998;2022-08-19T15:09:55;11.60;;;10.70;;
7485;SDS011;3784;54.098;9.998;2022-08-19T15:12:23;10.50;;;9.60;;
7485;SDS011;3784;54.098;9.998;2022-08-19T15:14:50;11.50;;;10.40;;
7485;SDS011;3784;54.098;9.998;2022-08-19T15:17:22;11.90;;;10.30;;
7485;SDS011;3784;54.098;9.998;2022-08-19T15:20:09;10.30;;;9.50;;